sensor_id;sensor_type;location;lat;lon;timestamp;temperature;humidity
84440;SHT31;74675;51.980;5.730;2024-01-15T00:01:44;4.1;79.2
84440;SHT31;74675;51.980;5.730;2024-01-15T00:04:12;4.1;78.8
84440;SHT31;74675;51.980;5.730;2024-01-15T00:06:41;4.1;79.1
84440;SHT31;74675;51.980;5.730;2024-01-15T00:09:09;4.0;79.0
84440;SHT31;74675;51.980;5.730;2024-01-15T00:11:38;4.0;79.0
84440;SHT31;74675;51.980;5.730;2024-01-15T00:14:08;4.0;79.1
84440;SHT31;74675;51.980;5.730;2024-01-15T00:16:39;3.9;79.2
84440;SHT31;74675;51.980;5.730;2024-01-15T00:19:08;3.9;78.9
84440;SHT31;74675;51.980;5.730;2024-01-15T00:21:36;3.9;79.0
84440;SHT31;74675;51.980;5.730;2024-01-15T00:24:05;3.9;78.8
84440;SHT31;74675;51.980;5.730;2024-01-15T00:26:34;3.9;78.7
84440;SHT31;74675;51.980;5.730;2024-01-15T00:29:03;3.8;78.8
84440;SHT31;74675;51.980;5.730;2024-01-15T00:31:33;3.8;78.9
84440;SHT31;74675;51.980;5.730;2024-01-15T00:34:02;3.7;79.0
84440;SHT31;74675;51.980;5.730;2024-01-15T00:36:31;3.7;79.0
84440;SHT31;74675;51.980;5.730;2024-01-15T00:38:59;3.7;79.1
84440;SHT31;74675;51.980;5.730;2024-01-15T00:41:30;3.7;79.3
84440;SHT31;74675;51.980;5.730;2024-01-15T00:44:01;3.6;79.3
84440;SHT31;74675;51.980;5.730;2024-01-15T00:46:29;3.6;79.3
84440;SHT31;74675;51.980;5.730;2024-01-15T00:48:58;3.6;79.2
84440;SHT31;74675;51.980;5.730;2024-01-15T00:51:26;3.5;79.6
84440;SHT31;74675;51.980;5.730;2024-01-15T00:53:55;3.5;79.7
84440;SHT31;74675;51.980;5.730;2024-01-15T00:56:24;3.5;79.6
84440;SHT31;74675;51.980;5.730;2024-01-15T00:58:52;3.4;79.5
84440;SHT31;74675;51.980;5.730;2024-01-15T01:01:21;3.4;79.5
84440;SHT31;74675;51.980;5.730;2024-01-15T01:03:50;3.4;79.4
84440;SHT31;74675;51.980;5.730;2024-01-15T01:06:19;3.4;79.3
84440;SHT31;74675;51.980;5.730;2024-01-15T01:08:49;3.4;79.5
84440;SHT31;74675;51.980;5.730;2024-01-15T01:11:18;3.4;79.6
84440;SHT31;74675;51.980;5.730;2024-01-15T01:13:48;3.4;79.6
84440;SHT31;74675;51.980;5.730;2024-01-15T01:16:17;3.4;79.5
84440;SHT31;74675;51.980;5.730;2024-01-15T01:18:45;3.3;79.5
84440;SHT31;74675;51.980;5.730;2024-01-15T01:21:14;3.3;79.3
84440;SHT31;74675;51.980;5.730;2024-01-15T01:23:43;3.3;79.6
84440;SHT31;74675;51.980;5.730;2024-01-15T01:26:17;3.4;79.7
84440;SHT31;74675;51.980;5.730;2024-01-15T01:28:45;3.5;79.5
84440;SHT31;74675;51.980;5.730;2024-01-15T01:31:14;3.5;79.0
84440;SHT31;74675;51.980;5.730;2024-01-15T01:33:43;3.5;78.6
84440;SHT31;74675;51.980;5.730;2024-01-15T01:36:11;3.6;78.3
84440;SHT31;74675;51.980;5.730;2024-01-15T01:38:40;3.5;78.4
84440;SHT31;74675;51.980;5.730;2024-01-15T01:41:09;3.5;78.2
84440;SHT31;74675;51.980;5.730;2024-01-15T01:43:40;3.5;78.1
84440;SHT31;74675;51.980;5.730;2024-01-15T01:46:09;3.5;78.2
84440;SHT31;74675;51.980;5.730;2024-01-15T01:48:40;3.5;78.1
84440;SHT31;74675;51.980;5.730;2024-01-15T01:51:09;3.5;77.6
84440;SHT31;74675;51.980;5.730;2024-01-15T01:53:39;3.5;77.8
84440;SHT31;74675;51.980;5.730;2024-01-15T01:56:11;3.4;77.4
84440;SHT31;74675;51.980;5.730;2024-01-15T01:58:40;3.4;77.4
84440;SHT31;74675;51.980;5.730;2024-01-15T02:01:09;3.4;77.6
84440;SHT31;74675;51.980;5.730;2024-01-15T02:03:42;3.4;77.5
84440;SHT31;74675;51.980;5.730;2024-01-15T02:06:11;3.4;77.2
84440;SHT31;74675;51.980;5.730;2024-01-15T02:08:43;3.4;77.3
84440;SHT31;74675;51.980;5.730;2024-01-15T02:11:12;3.5;76.9
84440;SHT31;74675;51.980;5.730;2024-01-15T02:13:43;3.5;77.1
84440;SHT31;74675;51.980;5.730;2024-01-15T02:16:11;3.5;76.6
84440;SHT31;74675;51.980;5.730;2024-01-15T02:18:44;3.5;76.4
84440;SHT31;74675;51.980;5.730;2024-01-15T02:21:13;3.5;76.2
84440;SHT31;74675;51.980;5.730;2024-01-15T02:23:41;3.5;76.1
84440;SHT31;74675;51.980;5.730;2024-01-15T02:26:10;3.5;76.2
84440;SHT31;74675;51.980;5.730;2024-01-15T02:28:42;3.5;76.4
84440;SHT31;74675;51.980;5.730;2024-01-15T02:31:10;3.5;76.2
84440;SHT31;74675;51.980;5.730;2024-01-15T02:33:39;3.4;76.2
84440;SHT31;74675;51.980;5.730;2024-01-15T02:36:09;3.4;76.0
84440;SHT31;74675;51.980;5.730;2024-01-15T02:38:38;3.4;76.6
84440;SHT31;74675;51.980;5.730;2024-01-15T02:41:06;3.4;76.9
84440;SHT31;74675;51.980;5.730;2024-01-15T02:43:35;3.4;76.5
84440;SHT31;74675;51.980;5.730;2024-01-15T02:46:05;3.5;77.3
84440;SHT31;74675;51.980;5.730;2024-01-15T02:48:34;3.5;77.1
84440;SHT31;74675;51.980;5.730;2024-01-15T02:51:03;3.5;77.3
84440;SHT31;74675;51.980;5.730;2024-01-15T02:53:32;3.5;77.5
84440;SHT31;74675;51.980;5.730;2024-01-15T02:56:00;3.5;77.2
84440;SHT31;74675;51.980;5.730;2024-01-15T02:58:29;3.6;76.9
84440;SHT31;74675;51.980;5.730;2024-01-15T03:00:57;3.6;76.9
84440;SHT31;74675;51.980;5.730;2024-01-15T03:03:26;3.6;76.7
84440;SHT31;74675;51.980;5.730;2024-01-15T03:05:54;3.6;76.7
84440;SHT31;74675;51.980;5.730;2024-01-15T03:08:23;3.6;76.5
84440;SHT31;74675;51.980;5.730;2024-01-15T03:10:51;3.6;76.9
84440;SHT31;74675;51.980;5.730;2024-01-15T03:13:20;3.6;76.7
84440;SHT31;74675;51.980;5.730;2024-01-15T03:15:49;3.6;76.6
84440;SHT31;74675;51.980;5.730;2024-01-15T03:18:17;3.6;76.7
84440;SHT31;74675;51.980;5.730;2024-01-15T03:20:45;3.6;76.8
84440;SHT31;74675;51.980;5.730;2024-01-15T03:23:14;3.6;76.9
84440;SHT31;74675;51.980;5.730;2024-01-15T03:25:42;3.7;76.7
84440;SHT31;74675;51.980;5.730;2024-01-15T03:28:11;3.7;76.7
84440;SHT31;74675;51.980;5.730;2024-01-15T03:30:40;3.7;76.7
84440;SHT31;74675;51.980;5.730;2024-01-15T03:33:08;3.7;76.5
84440;SHT31;74675;51.980;5.730;2024-01-15T03:35:37;3.6;76.5
84440;SHT31;74675;51.980;5.730;2024-01-15T03:38:06;3.6;76.5
84440;SHT31;74675;51.980;5.730;2024-01-15T03:40:34;3.6;76.5
84440;SHT31;74675;51.980;5.730;2024-01-15T03:43:03;3.6;76.6
84440;SHT31;74675;51.980;5.730;2024-01-15T03:45:32;3.6;76.8
84440;SHT31;74675;51.980;5.730;2024-01-15T03:48:00;3.6;77.0
84440;SHT31;74675;51.980;5.730;2024-01-15T03:50:29;3.6;76.9
84440;SHT31;74675;51.980;5.730;2024-01-15T03:52:57;3.6;76.9
84440;SHT31;74675;51.980;5.730;2024-01-15T03:55:26;3.6;76.9
84440;SHT31;74675;51.980;5.730;2024-01-15T03:57:54;3.6;76.9
84440;SHT31;74675;51.980;5.730;2024-01-15T04:00:23;3.6;77.1
84440;SHT31;74675;51.980;5.730;2024-01-15T04:02:51;3.6;77.3
84440;SHT31;74675;51.980;5.730;2024-01-15T04:05:20;3.6;77.3
84440;SHT31;74675;51.980;5.730;2024-01-15T04:07:49;3.6;77.7
84440;SHT31;74675;51.980;5.730;2024-01-15T04:10:17;3.6;77.6
84440;SHT31;74675;51.980;5.730;2024-01-15T04:12:46;3.7;77.4
84440;SHT31;74675;51.980;5.730;2024-01-15T04:15:15;3.7;77.4
84440;SHT31;74675;51.980;5.730;2024-01-15T04:17:43;3.8;77.2
84440;SHT31;74675;51.980;5.730;2024-01-15T04:20:12;3.8;76.9
84440;SHT31;74675;51.980;5.730;2024-01-15T04:22:41;3.8;77.0
84440;SHT31;74675;51.980;5.730;2024-01-15T04:25:10;3.8;77.1
84440;SHT31;74675;51.980;5.730;2024-01-15T04:27:38;3.8;77.2
84440;SHT31;74675;51.980;5.730;2024-01-15T04:30:10;3.8;77.4
84440;SHT31;74675;51.980;5.730;2024-01-15T04:32:39;3.8;77.4
84440;SHT31;74675;51.980;5.730;2024-01-15T04:35:08;3.8;77.3
84440;SHT31;74675;51.980;5.730;2024-01-15T04:37:36;3.8;77.0
84440;SHT31;74675;51.980;5.730;2024-01-15T04:40:06;3.8;76.9
84440;SHT31;74675;51.980;5.730;2024-01-15T04:42:34;3.8;76.8
84440;SHT31;74675;51.980;5.730;2024-01-15T04:45:04;3.7;77.0
84440;SHT31;74675;51.980;5.730;2024-01-15T04:47:32;3.7;77.4
84440;SHT31;74675;51.980;5.730;2024-01-15T04:50:03;3.7;77.5
84440;SHT31;74675;51.980;5.730;2024-01-15T04:52:32;3.7;77.3
84440;SHT31;74675;51.980;5.730;2024-01-15T04:55:00;3.6;77.4
84440;SHT31;74675;51.980;5.730;2024-01-15T04:57:29;3.6;77.4
84440;SHT31;74675;51.980;5.730;2024-01-15T04:59:58;3.6;77.4
84440;SHT31;74675;51.980;5.730;2024-01-15T05:02:27;3.6;77.3
84440;SHT31;74675;51.980;5.730;2024-01-15T05:04:55;3.6;77.5
84440;SHT31;74675;51.980;5.730;2024-01-15T05:07:24;3.5;77.4
84440;SHT31;74675;51.980;5.730;2024-01-15T05:09:52;3.5;77.6
84440;SHT31;74675;51.980;5.730;2024-01-15T05:12:21;3.5;77.5
84440;SHT31;74675;51.980;5.730;2024-01-15T05:14:51;3.5;77.6
84440;SHT31;74675;51.980;5.730;2024-01-15T05:17:20;3.5;77.8
84440;SHT31;74675;51.980;5.730;2024-01-15T05:19:48;3.4;78.2
84440;SHT31;74675;51.980;5.730;2024-01-15T05:22:17;3.4;78.3
84440;SHT31;74675;51.980;5.730;2024-01-15T05:24:45;3.4;78.7
84440;SHT31;74675;51.980;5.730;2024-01-15T05:27:14;3.4;79.0
84440;SHT31;74675;51.980;5.730;2024-01-15T05:29:42;3.4;78.9
84440;SHT31;74675;51.980;5.730;2024-01-15T05:32:11;3.5;79.2
84440;SHT31;74675;51.980;5.730;2024-01-15T05:34:39;3.5;79.2
84440;SHT31;74675;51.980;5.730;2024-01-15T05:37:08;3.5;79.1
84440;SHT31;74675;51.980;5.730;2024-01-15T05:39:37;3.5;79.1
84440;SHT31;74675;51.980;5.730;2024-01-15T05:42:08;3.6;79.1
84440;SHT31;74675;51.980;5.730;2024-01-15T05:44:36;3.6;79.1
84440;SHT31;74675;51.980;5.730;2024-01-15T05:47:05;3.6;78.9
84440;SHT31;74675;51.980;5.730;2024-01-15T05:49:34;3.6;78.8
84440;SHT31;74675;51.980;5.730;2024-01-15T05:52:02;3.6;78.9
84440;SHT31;74675;51.980;5.730;2024-01-15T05:54:33;3.6;78.9
84440;SHT31;74675;51.980;5.730;2024-01-15T05:57:02;3.6;79.0
84440;SHT31;74675;51.980;5.730;2024-01-15T05:59:31;3.6;78.9
84440;SHT31;74675;51.980;5.730;2024-01-15T06:02:02;3.6;78.9
84440;SHT31;74675;51.980;5.730;2024-01-15T06:04:31;3.6;79.0
84440;SHT31;74675;51.980;5.730;2024-01-15T06:06:59;3.6;79.2
84440;SHT31;74675;51.980;5.730;2024-01-15T06:09:28;3.6;79.4
84440;SHT31;74675;51.980;5.730;2024-01-15T06:11:58;3.6;79.5
84440;SHT31;74675;51.980;5.730;2024-01-15T06:14:26;3.6;79.6
84440;SHT31;74675;51.980;5.730;2024-01-15T06:16:55;3.6;79.6
84440;SHT31;74675;51.980;5.730;2024-01-15T06:19:24;3.6;79.7
84440;SHT31;74675;51.980;5.730;2024-01-15T06:21:54;3.6;79.7
84440;SHT31;74675;51.980;5.730;2024-01-15T06:24:23;3.6;79.7
84440;SHT31;74675;51.980;5.730;2024-01-15T06:26:53;3.6;79.6
84440;SHT31;74675;51.980;5.730;2024-01-15T06:29:22;3.6;79.7
84440;SHT31;74675;51.980;5.730;2024-01-15T06:31:51;3.6;79.6
84440;SHT31;74675;51.980;5.730;2024-01-15T06:34:19;3.7;79.8
84440;SHT31;74675;51.980;5.730;2024-01-15T06:36:48;3.7;79.8
84440;SHT31;74675;51.980;5.730;2024-01-15T06:39:16;3.8;79.6
84440;SHT31;74675;51.980;5.730;2024-01-15T06:41:45;3.9;78.7
84440;SHT31;74675;51.980;5.730;2024-01-15T06:44:14;4.0;77.9
84440;SHT31;74675;51.980;5.730;2024-01-15T06:46:44;4.0;77.6
84440;SHT31;74675;51.980;5.730;2024-01-15T06:49:12;4.0;77.2
84440;SHT31;74675;51.980;5.730;2024-01-15T06:51:41;4.0;77.0
84440;SHT31;74675;51.980;5.730;2024-01-15T06:54:10;4.0;76.9
84440;SHT31;74675;51.980;5.730;2024-01-15T06:56:38;3.9;77.1
84440;SHT31;74675;51.980;5.730;2024-01-15T06:59:07;3.9;77.3
84440;SHT31;74675;51.980;5.730;2024-01-15T07:01:35;3.9;77.4
84440;SHT31;74675;51.980;5.730;2024-01-15T07:04:04;3.9;77.7
84440;SHT31;74675;51.980;5.730;2024-01-15T07:06:33;3.8;77.8
84440;SHT31;74675;51.980;5.730;2024-01-15T07:09:01;3.8;77.8
84440;SHT31;74675;51.980;5.730;2024-01-15T07:11:30;3.8;77.9
84440;SHT31;74675;51.980;5.730;2024-01-15T07:13:59;3.8;77.9
84440;SHT31;74675;51.980;5.730;2024-01-15T07:16:29;3.8;78.0
84440;SHT31;74675;51.980;5.730;2024-01-15T07:18:58;3.7;78.1
84440;SHT31;74675;51.980;5.730;2024-01-15T07:21:26;3.7;78.3
84440;SHT31;74675;51.980;5.730;2024-01-15T07:23:56;3.7;78.4
84440;SHT31;74675;51.980;5.730;2024-01-15T07:26:24;3.6;78.5
84440;SHT31;74675;51.980;5.730;2024-01-15T07:28:53;3.6;78.7
84440;SHT31;74675;51.980;5.730;2024-01-15T07:31:22;3.6;79.0
84440;SHT31;74675;51.980;5.730;2024-01-15T07:33:50;3.5;79.1
84440;SHT31;74675;51.980;5.730;2024-01-15T07:36:19;3.5;79.2
84440;SHT31;74675;51.980;5.730;2024-01-15T07:38:49;3.5;80.2
84440;SHT31;74675;51.980;5.730;2024-01-15T07:41:18;3.5;80.0
84440;SHT31;74675;51.980;5.730;2024-01-15T07:43:46;3.5;79.9
84440;SHT31;74675;51.980;5.730;2024-01-15T07:46:15;3.5;79.9
84440;SHT31;74675;51.980;5.730;2024-01-15T07:48:44;3.5;79.9
84440;SHT31;74675;51.980;5.730;2024-01-15T07:51:12;3.5;79.7
84440;SHT31;74675;51.980;5.730;2024-01-15T07:53:41;3.5;79.5
84440;SHT31;74675;51.980;5.730;2024-01-15T07:56:10;3.5;79.2
84440;SHT31;74675;51.980;5.730;2024-01-15T07:58:38;3.5;79.2
84440;SHT31;74675;51.980;5.730;2024-01-15T08:01:07;3.5;79.3
84440;SHT31;74675;51.980;5.730;2024-01-15T08:03:38;3.4;79.4
84440;SHT31;74675;51.980;5.730;2024-01-15T08:06:07;3.4;79.7
84440;SHT31;74675;51.980;5.730;2024-01-15T08:08:36;3.4;80.0
84440;SHT31;74675;51.980;5.730;2024-01-15T08:11:05;3.4;80.1
84440;SHT31;74675;51.980;5.730;2024-01-15T08:13:36;3.4;80.3
84440;SHT31;74675;51.980;5.730;2024-01-15T08:16:05;3.4;79.9
84440;SHT31;74675;51.980;5.730;2024-01-15T08:18:33;3.4;79.8
84440;SHT31;74675;51.980;5.730;2024-01-15T08:21:02;3.4;79.8
84440;SHT31;74675;51.980;5.730;2024-01-15T08:23:31;3.4;79.8
84440;SHT31;74675;51.980;5.730;2024-01-15T08:25:59;3.4;79.7
84440;SHT31;74675;51.980;5.730;2024-01-15T08:28:28;3.4;79.6
84440;SHT31;74675;51.980;5.730;2024-01-15T08:30:57;3.4;80.0
84440;SHT31;74675;51.980;5.730;2024-01-15T08:33:25;3.4;80.1
84440;SHT31;74675;51.980;5.730;2024-01-15T08:35:54;3.4;80.0
84440;SHT31;74675;51.980;5.730;2024-01-15T08:38:24;3.4;80.0
84440;SHT31;74675;51.980;5.730;2024-01-15T08:40:53;3.4;80.0
84440;SHT31;74675;51.980;5.730;2024-01-15T08:43:25;3.4;80.0
84440;SHT31;74675;51.980;5.730;2024-01-15T08:45:53;3.4;80.2
84440;SHT31;74675;51.980;5.730;2024-01-15T08:48:22;3.4;80.1
84440;SHT31;74675;51.980;5.730;2024-01-15T08:50:53;3.4;80.0
84440;SHT31;74675;51.980;5.730;2024-01-15T08:53:23;3.4;80.2
84440;SHT31;74675;51.980;5.730;2024-01-15T08:55:52;3.4;80.1
84440;SHT31;74675;51.980;5.730;2024-01-15T08:58:20;3.4;80.3
84440;SHT31;74675;51.980;5.730;2024-01-15T09:00:51;3.4;80.4
84440;SHT31;74675;51.980;5.730;2024-01-15T09:03:22;3.4;80.4
84440;SHT31;74675;51.980;5.730;2024-01-15T09:05:50;3.4;80.4
84440;SHT31;74675;51.980;5.730;2024-01-15T09:08:19;3.5;80.4
84440;SHT31;74675;51.980;5.730;2024-01-15T09:10:48;3.5;80.3
84440;SHT31;74675;51.980;5.730;2024-01-15T09:13:16;3.5;80.2
84440;SHT31;74675;51.980;5.730;2024-01-15T09:15:45;3.6;80.2
84440;SHT31;74675;51.980;5.730;2024-01-15T09:18:13;3.6;80.2
84440;SHT31;74675;51.980;5.730;2024-01-15T09:20:42;3.6;79.9
84440;SHT31;74675;51.980;5.730;2024-01-15T09:23:10;3.6;79.4
84440;SHT31;74675;51.980;5.730;2024-01-15T09:25:39;3.6;79.2
84440;SHT31;74675;51.980;5.730;2024-01-15T09:28:07;3.6;79.4
84440;SHT31;74675;51.980;5.730;2024-01-15T09:30:36;3.7;79.3
84440;SHT31;74675;51.980;5.730;2024-01-15T09:33:05;3.7;79.4
84440;SHT31;74675;51.980;5.730;2024-01-15T09:35:34;3.7;79.7
84440;SHT31;74675;51.980;5.730;2024-01-15T09:38:03;3.7;79.9
84440;SHT31;74675;51.980;5.730;2024-01-15T09:40:32;3.7;79.6
84440;SHT31;74675;51.980;5.730;2024-01-15T09:43:02;3.7;79.6
84440;SHT31;74675;51.980;5.730;2024-01-15T09:45:31;3.7;78.9
84440;SHT31;74675;51.980;5.730;2024-01-15T09:48:01;3.7;78.7
84440;SHT31;74675;51.980;5.730;2024-01-15T09:50:29;3.6;78.9
84440;SHT31;74675;51.980;5.730;2024-01-15T09:52:59;3.6;78.7
84440;SHT31;74675;51.980;5.730;2024-01-15T09:55:29;3.5;79.0
84440;SHT31;74675;51.980;5.730;2024-01-15T09:58:00;3.5;79.1
84440;SHT31;74675;51.980;5.730;2024-01-15T10:00:29;3.4;79.3
84440;SHT31;74675;51.980;5.730;2024-01-15T10:02:59;3.4;79.8
84440;SHT31;74675;51.980;5.730;2024-01-15T10:05:28;3.3;80.5
84440;SHT31;74675;51.980;5.730;2024-01-15T10:07:57;3.3;81.4
84440;SHT31;74675;51.980;5.730;2024-01-15T10:10:25;3.4;81.7
84440;SHT31;74675;51.980;5.730;2024-01-15T10:12:54;3.4;81.6
84440;SHT31;74675;51.980;5.730;2024-01-15T10:15:24;3.5;81.0
84440;SHT31;74675;51.980;5.730;2024-01-15T10:17:54;3.5;80.7
84440;SHT31;74675;51.980;5.730;2024-01-15T10:20:22;3.5;80.2
84440;SHT31;74675;51.980;5.730;2024-01-15T10:22:51;3.5;80.4
84440;SHT31;74675;51.980;5.730;2024-01-15T10:25:20;3.5;80.7
84440;SHT31;74675;51.980;5.730;2024-01-15T10:28:00;3.5;80.7
84440;SHT31;74675;51.980;5.730;2024-01-15T10:30:30;3.5;80.8
84440;SHT31;74675;51.980;5.730;2024-01-15T10:33:01;3.6;80.6
84440;SHT31;74675;51.980;5.730;2024-01-15T10:35:33;3.6;80.8
84440;SHT31;74675;51.980;5.730;2024-01-15T10:38:02;3.6;81.1
84440;SHT31;74675;51.980;5.730;2024-01-15T10:40:32;3.6;81.7
84440;SHT31;74675;51.980;5.730;2024-01-15T10:43:00;3.7;81.8
84440;SHT31;74675;51.980;5.730;2024-01-15T10:45:29;3.7;80.8
84440;SHT31;74675;51.980;5.730;2024-01-15T10:47:58;3.8;81.0
84440;SHT31;74675;51.980;5.730;2024-01-15T10:50:29;3.8;81.6
84440;SHT31;74675;51.980;5.730;2024-01-15T10:53:02;3.9;81.4
84440;SHT31;74675;51.980;5.730;2024-01-15T10:55:32;3.9;80.8
84440;SHT31;74675;51.980;5.730;2024-01-15T10:58:02;4.0;80.0
84440;SHT31;74675;51.980;5.730;2024-01-15T11:00:34;4.0;79.3
84440;SHT31;74675;51.980;5.730;2024-01-15T11:03:06;4.0;78.6
84440;SHT31;74675;51.980;5.730;2024-01-15T11:05:36;4.0;78.2
84440;SHT31;74675;51.980;5.730;2024-01-15T11:08:06;4.0;77.9
84440;SHT31;74675;51.980;5.730;2024-01-15T11:10:43;4.0;77.8
84440;SHT31;74675;51.980;5.730;2024-01-15T11:13:19;3.9;78.1
84440;SHT31;74675;51.980;5.730;2024-01-15T11:16:03;3.9;78.5
84440;SHT31;74675;51.980;5.730;2024-01-15T11:18:35;3.8;78.9
84440;SHT31;74675;51.980;5.730;2024-01-15T11:21:23;3.8;79.1
84440;SHT31;74675;51.980;5.730;2024-01-15T11:23:56;3.8;79.5
84440;SHT31;74675;51.980;5.730;2024-01-15T11:26:58;3.8;79.5
84440;SHT31;74675;51.980;5.730;2024-01-15T11:29:34;3.9;79.6
84440;SHT31;74675;51.980;5.730;2024-01-15T11:32:05;3.9;79.9
84440;SHT31;74675;51.980;5.730;2024-01-15T11:34:54;4.0;79.8
84440;SHT31;74675;51.980;5.730;2024-01-15T11:37:25;4.0;79.4
84440;SHT31;74675;51.980;5.730;2024-01-15T11:39:56;4.0;79.9
84440;SHT31;74675;51.980;5.730;2024-01-15T11:42:30;4.0;79.8
84440;SHT31;74675;51.980;5.730;2024-01-15T11:44:59;4.1;79.9
84440;SHT31;74675;51.980;5.730;2024-01-15T11:47:58;4.2;79.1
84440;SHT31;74675;51.980;5.730;2024-01-15T11:50:30;4.3;78.2
84440;SHT31;74675;51.980;5.730;2024-01-15T11:53:01;4.3;78.1
84440;SHT31;74675;51.980;5.730;2024-01-15T11:55:34;4.2;78.0
84440;SHT31;74675;51.980;5.730;2024-01-15T11:58:08;4.2;78.5
84440;SHT31;74675;51.980;5.730;2024-01-15T12:00:39;4.2;78.6
84440;SHT31;74675;51.980;5.730;2024-01-15T12:03:09;4.1;79.5
84440;SHT31;74675;51.980;5.730;2024-01-15T12:05:41;4.1;80.3
84440;SHT31;74675;51.980;5.730;2024-01-15T12:08:12;4.1;80.5
84440;SHT31;74675;51.980;5.730;2024-01-15T12:10:41;4.1;80.8
84440;SHT31;74675;51.980;5.730;2024-01-15T12:13:13;4.1;80.6
84440;SHT31;74675;51.980;5.730;2024-01-15T12:15:43;4.1;80.5
84440;SHT31;74675;51.980;5.730;2024-01-15T12:18:13;4.1;80.4
84440;SHT31;74675;51.980;5.730;2024-01-15T12:20:43;4.1;80.7
84440;SHT31;74675;51.980;5.730;2024-01-15T12:23:13;4.2;81.2
84440;SHT31;74675;51.980;5.730;2024-01-15T12:25:43;4.2;80.3
84440;SHT31;74675;51.980;5.730;2024-01-15T12:28:12;4.3;80.1
84440;SHT31;74675;51.980;5.730;2024-01-15T12:30:41;4.3;79.3
84440;SHT31;74675;51.980;5.730;2024-01-15T12:33:11;4.4;78.8
84440;SHT31;74675;51.980;5.730;2024-01-15T12:35:39;4.4;78.3
84440;SHT31;74675;51.980;5.730;2024-01-15T12:38:08;4.4;79.1
84440;SHT31;74675;51.980;5.730;2024-01-15T12:40:36;4.5;79.1
84440;SHT31;74675;51.980;5.730;2024-01-15T12:43:05;4.5;79.1
84440;SHT31;74675;51.980;5.730;2024-01-15T12:45:36;4.6;79.1
84440;SHT31;74675;51.980;5.730;2024-01-15T12:48:05;4.7;77.4
84440;SHT31;74675;51.980;5.730;2024-01-15T12:50:35;4.7;77.5
84440;SHT31;74675;51.980;5.730;2024-01-15T12:53:03;4.7;76.9
84440;SHT31;74675;51.980;5.730;2024-01-15T12:55:32;4.7;75.8
84440;SHT31;74675;51.980;5.730;2024-01-15T12:58:01;4.8;76.5
84440;SHT31;74675;51.980;5.730;2024-01-15T13:00:30;4.8;76.5
84440;SHT31;74675;51.980;5.730;2024-01-15T13:02:59;4.8;76.5
84440;SHT31;74675;51.980;5.730;2024-01-15T13:05:31;4.8;76.4
84440;SHT31;74675;51.980;5.730;2024-01-15T13:08:03;4.8;77.0
84440;SHT31;74675;51.980;5.730;2024-01-15T13:10:32;4.8;76.9
84440;SHT31;74675;51.980;5.730;2024-01-15T13:13:00;4.9;76.3
84440;SHT31;74675;51.980;5.730;2024-01-15T13:15:29;4.9;74.9
84440;SHT31;74675;51.980;5.730;2024-01-15T13:17:58;4.9;75.6
84440;SHT31;74675;51.980;5.730;2024-01-15T13:20:28;4.9;75.2
84440;SHT31;74675;51.980;5.730;2024-01-15T13:22:57;4.8;73.9
84440;SHT31;74675;51.980;5.730;2024-01-15T13:25:26;4.8;74.2
84440;SHT31;74675;51.980;5.730;2024-01-15T13:27:54;4.8;74.1
84440;SHT31;74675;51.980;5.730;2024-01-15T13:30:23;4.7;74.5
84440;SHT31;74675;51.980;5.730;2024-01-15T13:32:51;4.7;74.5
84440;SHT31;74675;51.980;5.730;2024-01-15T13:35:20;4.7;74.9
84440;SHT31;74675;51.980;5.730;2024-01-15T13:37:49;4.6;74.0
84440;SHT31;74675;51.980;5.730;2024-01-15T13:40:19;4.6;74.5
84440;SHT31;74675;51.980;5.730;2024-01-15T13:42:48;4.6;74.8
84440;SHT31;74675;51.980;5.730;2024-01-15T13:45:18;4.5;75.1
84440;SHT31;74675;51.980;5.730;2024-01-15T13:47:47;4.5;74.6
84440;SHT31;74675;51.980;5.730;2024-01-15T13:50:15;4.4;74.8
84440;SHT31;74675;51.980;5.730;2024-01-15T13:52:44;4.4;74.9
84440;SHT31;74675;51.980;5.730;2024-01-15T13:55:13;4.3;75.2
84440;SHT31;74675;51.980;5.730;2024-01-15T13:57:41;4.3;75.9
84440;SHT31;74675;51.980;5.730;2024-01-15T14:00:10;4.3;76.0
84440;SHT31;74675;51.980;5.730;2024-01-15T14:02:44;4.3;76.1
84440;SHT31;74675;51.980;5.730;2024-01-15T14:05:13;4.3;75.9
84440;SHT31;74675;51.980;5.730;2024-01-15T14:07:42;4.4;75.8
84440;SHT31;74675;51.980;5.730;2024-01-15T14:10:13;4.4;75.8
84440;SHT31;74675;51.980;5.730;2024-01-15T14:12:43;4.4;75.0
84440;SHT31;74675;51.980;5.730;2024-01-15T14:15:11;4.4;75.1
84440;SHT31;74675;51.980;5.730;2024-01-15T14:17:40;4.4;74.9
84440;SHT31;74675;51.980;5.730;2024-01-15T14:20:11;4.4;75.1
84440;SHT31;74675;51.980;5.730;2024-01-15T14:22:40;4.5;75.6
84440;SHT31;74675;51.980;5.730;2024-01-15T14:25:11;4.5;75.3
84440;SHT31;74675;51.980;5.730;2024-01-15T14:27:40;4.5;74.8
84440;SHT31;74675;51.980;5.730;2024-01-15T14:30:09;4.5;74.7
84440;SHT31;74675;51.980;5.730;2024-01-15T14:32:39;4.5;75.0
84440;SHT31;74675;51.980;5.730;2024-01-15T14:35:08;4.6;74.4
84440;SHT31;74675;51.980;5.730;2024-01-15T14:37:38;4.6;75.0
84440;SHT31;74675;51.980;5.730;2024-01-15T14:40:07;4.6;74.9
84440;SHT31;74675;51.980;5.730;2024-01-15T14:42:37;4.6;74.6
84440;SHT31;74675;51.980;5.730;2024-01-15T14:45:06;4.6;74.9
84440;SHT31;74675;51.980;5.730;2024-01-15T14:47:38;4.6;75.3
84440;SHT31;74675;51.980;5.730;2024-01-15T14:50:09;4.6;75.3
84440;SHT31;74675;51.980;5.730;2024-01-15T14:52:38;4.6;74.5
84440;SHT31;74675;51.980;5.730;2024-01-15T14:55:10;4.5;75.1
84440;SHT31;74675;51.980;5.730;2024-01-15T14:57:39;4.5;75.2
84440;SHT31;74675;51.980;5.730;2024-01-15T15:00:08;4.5;74.8
84440;SHT31;74675;51.980;5.730;2024-01-15T15:02:38;4.5;75.2
84440;SHT31;74675;51.980;5.730;2024-01-15T15:05:08;4.5;75.0
84440;SHT31;74675;51.980;5.730;2024-01-15T15:07:37;4.5;75.5
84440;SHT31;74675;51.980;5.730;2024-01-15T15:10:06;4.5;74.6
84440;SHT31;74675;51.980;5.730;2024-01-15T15:12:35;4.6;73.4
84440;SHT31;74675;51.980;5.730;2024-01-15T15:15:05;4.5;73.2
84440;SHT31;74675;51.980;5.730;2024-01-15T15:17:33;4.5;73.7
84440;SHT31;74675;51.980;5.730;2024-01-15T15:20:03;4.5;74.0
84440;SHT31;74675;51.980;5.730;2024-01-15T15:22:32;4.5;73.8
84440;SHT31;74675;51.980;5.730;2024-01-15T15:25:00;4.4;74.2
84440;SHT31;74675;51.980;5.730;2024-01-15T15:27:29;4.4;74.2
84440;SHT31;74675;51.980;5.730;2024-01-15T15:29:57;4.4;75.1
84440;SHT31;74675;51.980;5.730;2024-01-15T15:32:26;4.4;75.0
84440;SHT31;74675;51.980;5.730;2024-01-15T15:34:54;4.4;75.4
84440;SHT31;74675;51.980;5.730;2024-01-15T15:37:23;4.4;75.2
84440;SHT31;74675;51.980;5.730;2024-01-15T15:39:52;4.3;75.3
84440;SHT31;74675;51.980;5.730;2024-01-15T15:42:20;4.3;75.4
84440;SHT31;74675;51.980;5.730;2024-01-15T15:44:50;4.3;75.5
84440;SHT31;74675;51.980;5.730;2024-01-15T15:47:21;4.2;75.4
84440;SHT31;74675;51.980;5.730;2024-01-15T15:49:50;4.2;75.9
84440;SHT31;74675;51.980;5.730;2024-01-15T15:52:19;4.1;76.0
84440;SHT31;74675;51.980;5.730;2024-01-15T15:54:48;4.1;76.0
84440;SHT31;74675;51.980;5.730;2024-01-15T15:57:16;4.0;76.1
84440;SHT31;74675;51.980;5.730;2024-01-15T15:59:45;4.0;76.2
84440;SHT31;74675;51.980;5.730;2024-01-15T16:02:15;4.0;76.4
84440;SHT31;74675;51.980;5.730;2024-01-15T16:04:44;4.0;76.4
84440;SHT31;74675;51.980;5.730;2024-01-15T16:07:12;4.1;76.0
84440;SHT31;74675;51.980;5.730;2024-01-15T16:09:41;4.1;75.8
84440;SHT31;74675;51.980;5.730;2024-01-15T16:12:09;4.1;76.4
84440;SHT31;74675;51.980;5.730;2024-01-15T16:14:38;4.1;75.8
84440;SHT31;74675;51.980;5.730;2024-01-15T16:17:07;4.1;76.2
84440;SHT31;74675;51.980;5.730;2024-01-15T16:19:35;4.1;75.6
84440;SHT31;74675;51.980;5.730;2024-01-15T16:22:05;4.1;75.6
84440;SHT31;74675;51.980;5.730;2024-01-15T16:24:35;4.2;75.0
84440;SHT31;74675;51.980;5.730;2024-01-15T16:27:03;4.2;75.6
84440;SHT31;74675;51.980;5.730;2024-01-15T16:29:32;4.2;75.5
84440;SHT31;74675;51.980;5.730;2024-01-15T16:32:01;4.2;75.2